Time;durP1;ratioP1;P1;durP2;ratioP2;P2;SDS_P1;SDS_P2;PMS_P1;PMS_P2;Temp;Humidity;BMP_temperature;BMP_pressure;BME280_temperature;BME280_humidity;BME280_pressure;Samples;Min_cycle;Max_cycle;Signal;HPM_P1;HPM_P2
2021/10/10 00:01:26;;;;;;;5.30;2.90;;;;;;;;;;4835491;29;20049;-82
2021/10/10 00:03:53;;;;;;;6.40;3.10;;;;;;;;;;4885823;29;20033;-82
2021/10/10 00:06:21;;;;;;;5.00;2.47;;;;;;;;;;4870852;29;20151;-82
2021/10/10 00:08:48;;;;;;;6.40;3.30;;;;;;;;;;4886311;29;21004;-82
2021/10/10 00:11:15;;;;;;;6.40;3.20;;;;;;;;;;4884495;29;20029;-81
2021/10/10 00:13:43;;;;;;;6.28;2.47;;;;;;;;;;4867486;29;20056;-79
2021/10/10 00:16:10;;;;;;;4.75;2.75;;;;;;;;;;4862540;29;20132;-82
2021/10/10 00:18:38;;;;;;;3.60;1.85;;;;;;;;;;4856263;29;20057;-82
2021/10/10 00:21:05;;;;;;;5.38;2.67;;;;;;;;;;4845498;29;20068;-82
2021/10/10 00:23:33;;;;;;;7.20;3.13;;;;;;;;;;4858668;29;20045;-81
2021/10/10 00:26:00;;;;;;;5.03;2.78;;;;;;;;;;4856431;29;20055;-81
2021/10/10 00:28:27;;;;;;;5.22;3.15;;;;;;;;;;4845971;29;20158;-83
2021/10/10 00:30:57;;;;;;;5.45;2.83;;;;;;;;;;4865763;29;20777;-79
2021/10/10 00:33:24;;;;;;;5.30;2.72;;;;;;;;;;4852233;29;20041;-80
2021/10/10 00:35:52;;;;;;;5.50;2.63;;;;;;;;;;4852888;29;20045;-79
2021/10/10 00:38:19;;;;;;;5.63;3.25;;;;;;;;;;4870753;29;20045;-80
2021/10/10 00:40:47;;;;;;;4.68;2.58;;;;;;;;;;4859998;29;20068;-83
2021/10/10 00:43:14;;;;;;;6.68;3.38;;;;;;;;;;4871569;29;20056;-79
2021/10/10 00:45:48;;;;;;;5.10;2.65;;;;;;;;;;4859493;29;20124;-79
2021/10/10 00:48:16;;;;;;;6.25;3.00;;;;;;;;;;4855509;29;20045;-78
2021/10/10 00:50:44;;;;;;;6.85;3.17;;;;;;;;;;4844759;29;20123;-78
2021/10/10 00:53:15;;;;;;;6.68;3.28;;;;;;;;;;4855108;29;20069;-79
2021/10/10 00:55:43;;;;;;;5.57;3.38;;;;;;;;;;4874912;29;20048;-78
2021/10/10 00:58:12;;;;;;;6.93;3.72;;;;;;;;;;4864667;29;20510;-78
2021/10/10 01:00:39;;;;;;;5.82;2.88;;;;;;;;;;4873696;29;20083;-78
2021/10/10 01:03:07;;;;;;;6.00;2.40;;;;;;;;;;4856071;29;20057;-78
2021/10/10 01:05:35;;;;;;;5.60;3.10;;;;;;;;;;4869435;29;20558;-79
2021/10/10 01:08:02;;;;;;;6.78;3.17;;;;;;;;;;4854114;29;20065;-78
2021/10/10 01:10:30;;;;;;;4.78;2.80;;;;;;;;;;4869217;29;20041;-78
2021/10/10 01:12:58;;;;;;;5.78;3.10;;;;;;;;;;4861942;29;20049;-78
2021/10/10 01:15:25;;;;;;;6.03;3.45;;;;;;;;;;4861579;29;20128;-79
2021/10/10 01:17:52;;;;;;;4.43;2.35;;;;;;;;;;4857333;29;20050;-78
2021/10/10 01:20:20;;;;;;;6.00;2.88;;;;;;;;;;4869479;29;20077;-78
2021/10/10 01:22:48;;;;;;;5.75;2.95;;;;;;;;;;4839320;29;20069;-78
2021/10/10 01:25:15;;;;;;;6.53;3.38;;;;;;;;;;4857375;29;20037;-78
2021/10/10 01:27:42;;;;;;;6.07;3.35;;;;;;;;;;4855949;29;20128;-78
2021/10/10 01:30:10;;;;;;;5.63;2.95;;;;;;;;;;4869126;29;20383;-79
2021/10/10 01:32:37;;;;;;;7.10;3.80;;;;;;;;;;4856969;29;20475;-78
2021/10/10 01:35:05;;;;;;;6.82;3.20;;;;;;;;;;4871890;29;20041;-79
2021/10/10 01:37:33;;;;;;;5.97;3.38;;;;;;;;;;4859422;29;20151;-78
2021/10/10 01:40:00;;;;;;;7.07;3.35;;;;;;;;;;4867080;29;20069;-79
2021/10/10 01:42:27;;;;;;;6.45;2.78;;;;;;;;;;4852313;29;20041;-78
2021/10/10 01:44:55;;;;;;;6.30;3.33;;;;;;;;;;4838318;29;20132;-79
2021/10/10 01:47:22;;;;;;;7.05;3.67;;;;;;;;;;4865250;29;20140;-78
2021/10/10 01:49:49;;;;;;;5.70;2.60;;;;;;;;;;4865537;29;20227;-78
2021/10/10 01:52:16;;;;;;;5.97;2.92;;;;;;;;;;4873190;29;20510;-78
2021/10/10 01:54:44;;;;;;;6.00;3.38;;;;;;;;;;4857319;29;20140;-78
2021/10/10 01:57:11;;;;;;;6.30;3.42;;;;;;;;;;4843944;29;20150;-78
2021/10/10 01:59:38;;;;;;;5.40;3.08;;;;;;;;;;4875463;29;20087;-78
2021/10/10 02:02:06;;;;;;;4.80;3.13;;;;;;;;;;4880049;29;20064;-79
2021/10/10 02:04:33;;;;;;;6.65;3.42;;;;;;;;;;4860093;29;20053;-78
2021/10/10 02:07:00;;;;;;;6.85;3.50;;;;;;;;;;4869090;29;20065;-79
2021/10/10 02:09:28;;;;;;;6.15;3.67;;;;;;;;;;4870392;29;20037;-79
2021/10/10 02:11:55;;;;;;;5.10;2.78;;;;;;;;;;4854443;29;20045;-79
2021/10/10 02:14:22;;;;;;;5.18;2.78;;;;;;;;;;4860633;29;20040;-78
2021/10/10 02:16:50;;;;;;;5.43;3.13;;;;;;;;;;4874485;29;20049;-78
2021/10/10 02:19:17;;;;;;;6.95;4.03;;;;;;;;;;4857352;29;20050;-79
2021/10/10 02:21:45;;;;;;;6.38;3.15;;;;;;;;;;4858284;29;20140;-78
2021/10/10 02:24:12;;;;;;;7.03;3.30;;;;;;;;;;4853214;29;20101;-79
2021/10/10 02:26:41;;;;;;;6.28;3.15;;;;;;;;;;4845088;29;20498;-78
2021/10/10 02:29:09;;;;;;;7.15;3.80;;;;;;;;;;4859459;29;20049;-79
2021/10/10 02:31:42;;;;;;;6.78;3.47;;;;;;;;;;4860082;29;20399;-79
2021/10/10 02:34:14;;;;;;;5.38;3.10;;;;;;;;;;4857049;29;20054;-78
2021/10/10 02:36:42;;;;;;;5.70;3.08;;;;;;;;;;4869623;29;20049;-78
2021/10/10 02:39:10;;;;;;;5.35;2.72;;;;;;;;;;4848604;29;20042;-79
2021/10/10 02:41:37;;;;;;;5.07;2.97;;;;;;;;;;4858738;29;20041;-78
2021/10/10 02:44:04;;;;;;;6.10;3.33;;;;;;;;;;4859985;29;20042;-79
2021/10/10 02:46:32;;;;;;;6.10;3.10;;;;;;;;;;4866213;29;20067;-78
2021/10/10 02:49:01;;;;;;;5.50;3.08;;;;;;;;;;4854289;29;20551;-78
2021/10/10 02:51:32;;;;;;;6.03;3.10;;;;;;;;;;4838770;29;20762;-79
2021/10/10 02:53:59;;;;;;;5.65;3.28;;;;;;;;;;4853407;29;20061;-78
2021/10/10 02:56:27;;;;;;;7.15;3.30;;;;;;;;;;4869178;29;20514;-79
2021/10/10 02:58:54;;;;;;;6.82;3.05;;;;;;;;;;4860736;29;20057;-79
2021/10/10 03:01:22;;;;;;;5.60;2.75;;;;;;;;;;4850881;29;20041;-79
2021/10/10 03:03:49;;;;;;;6.30;3.28;;;;;;;;;;4841229;29;20137;-79
2021/10/10 03:06:16;;;;;;;6.50;3.28;;;;;;;;;;4850807;29;20128;-79
2021/10/10 03:08:44;;;;;;;6.35;3.70;;;;;;;;;;4850809;29;20046;-79
2021/10/10 03:11:11;;;;;;;6.63;3.80;;;;;;;;;;4842926;29;20105;-79
2021/10/10 03:13:39;;;;;;;5.80;3.33;;;;;;;;;;4854874;29;20038;-79
2021/10/10 03:16:06;;;;;;;5.72;3.15;;;;;;;;;;4861270;29;20033;-78
2021/10/10 03:18:33;;;;;;;5.13;2.95;;;;;;;;;;4857646;29;20093;-79
2021/10/10 03:21:01;;;;;;;5.85;3.40;;;;;;;;;;4858209;29;20124;-78
2021/10/10 03:23:28;;;;;;;6.75;3.53;;;;;;;;;;4873626;29;20050;-78
2021/10/10 03:25:55;;;;;;;5.47;2.20;;;;;;;;;;4859966;29;20130;-78
2021/10/10 03:28:23;;;;;;;6.10;2.80;;;;;;;;;;4842581;29;20054;-78
2021/10/10 03:30:50;;;;;;;5.25;2.67;;;;;;;;;;4854236;29;20038;-78
2021/10/10 03:33:17;;;;;;;5.05;2.92;;;;;;;;;;4870958;29;20045;-78
2021/10/10 03:35:45;;;;;;;4.45;2.33;;;;;;;;;;4857755;29;20041;-78
2021/10/10 03:38:12;;;;;;;5.75;2.88;;;;;;;;;;4858739;29;20049;-78
2021/10/10 03:40:39;;;;;;;5.63;2.92;;;;;;;;;;4851870;29;20045;-78
2021/10/10 03:43:07;;;;;;;5.25;2.70;;;;;;;;;;4859960;29;20050;-78
2021/10/10 03:45:34;;;;;;;6.03;2.60;;;;;;;;;;4841555;29;20132;-78
2021/10/10 03:48:02;;;;;;;5.60;3.13;;;;;;;;;;4852695;29;20487;-78
2021/10/10 03:50:29;;;;;;;5.85;2.97;;;;;;;;;;4853148;29;20136;-78
2021/10/10 03:52:56;;;;;;;4.68;2.80;;;;;;;;;;4840159;29;20041;-78
2021/10/10 03:58:00;;;;;;;6.68;3.05;;;;;;;;;;4853820;29;20045;-78
2021/10/10 04:00:29;;;;;;;4.53;2.40;;;;;;;;;;4837308;29;20118;-78
2021/10/10 04:02:59;;;;;;;4.68;2.78;;;;;;;;;;4862855;29;20049;-77
2021/10/10 04:08:01;;;;;;;6.00;3.20;;;;;;;;;;4852285;29;20045;-77
2021/10/10 04:10:28;;;;;;;5.72;3.28;;;;;;;;;;4857309;29;20052;-78
2021/10/10 04:12:56;;;;;;;5.90;3.20;;;;;;;;;;4859374;29;20041;-78
2021/10/10 04:15:23;;;;;;;6.20;3.10;;;;;;;;;;4859285;29;20479;-78
2021/10/10 04:17:51;;;;;;;6.53;3.33;;;;;;;;;;4854094;29;20517;-78
2021/10/10 04:20:18;;;;;;;6.22;3.42;;;;;;;;;;4855382;29;20041;-78
2021/10/10 04:22:46;;;;;;;5.25;3.08;;;;;;;;;;4858806;29;20144;-78
2021/10/10 04:25:14;;;;;;;6.32;3.38;;;;;;;;;;4841191;29;20494;-78
2021/10/10 04:27:42;;;;;;;5.32;3.08;;;;;;;;;;4867842;29;20056;-77
2021/10/10 04:30:13;;;;;;;7.22;4.03;;;;;;;;;;4874017;29;20513;-78
2021/10/10 04:32:42;;;;;;;6.30;3.63;;;;;;;;;;4850944;29;20053;-78
2021/10/10 04:35:10;;;;;;;4.95;2.90;;;;;;;;;;4856631;29;20075;-78
2021/10/10 04:37:38;;;;;;;5.15;3.25;;;;;;;;;;4860917;29;20108;-78
2021/10/10 04:40:06;;;;;;;5.47;2.95;;;;;;;;;;4854394;29;20088;-78
2021/10/10 04:42:34;;;;;;;5.95;3.65;;;;;;;;;;4870001;29;20110;-78
2021/10/10 04:45:02;;;;;;;7.78;4.00;;;;;;;;;;4865612;29;20102;-78
2021/10/10 04:47:29;;;;;;;6.97;3.47;;;;;;;;;;4867911;29;20116;-77
2021/10/10 04:49:58;;;;;;;9.38;4.68;;;;;;;;;;4843255;29;20140;-78
2021/10/10 04:52:26;;;;;;;6.95;3.88;;;;;;;;;;4866722;29;20041;-78
2021/10/10 04:54:53;;;;;;;8.20;3.92;;;;;;;;;;4871352;29;20045;-78
2021/10/10 04:57:20;;;;;;;6.18;3.22;;;;;;;;;;4851131;29;20391;-77
2021/10/10 04:59:51;;;;;;;6.07;3.55;;;;;;;;;;4855195;29;20443;-78
2021/10/10 05:02:19;;;;;;;6.18;3.38;;;;;;;;;;4872082;29;20041;-78
2021/10/10 05:04:47;;;;;;;6.00;3.55;;;;;;;;;;4860943;29;20049;-78
2021/10/10 05:07:14;;;;;;;5.38;3.03;;;;;;;;;;4856117;29;20124;-78
2021/10/10 05:09:42;;;;;;;5.43;2.95;;;;;;;;;;4849583;29;20042;-78
2021/10/10 05:12:09;;;;;;;7.28;4.40;;;;;;;;;;4865497;29;20495;-77
2021/10/10 05:14:37;;;;;;;6.38;3.50;;;;;;;;;;4857962;29;20037;-78
2021/10/10 05:17:05;;;;;;;5.35;2.88;;;;;;;;;;4871664;29;20041;-77
2021/10/10 05:19:32;;;;;;;5.50;3.35;;;;;;;;;;4859458;29;20120;-77
2021/10/10 05:22:00;;;;;;;6.40;3.17;;;;;;;;;;4856665;29;20053;-77
2021/10/10 05:24:27;;;;;;;5.63;3.13;;;;;;;;;;4871529;29;20045;-78
2021/10/10 05:26:54;;;;;;;6.82;3.20;;;;;;;;;;4861184;29;20055;-78
2021/10/10 05:29:22;;;;;;;4.38;2.47;;;;;;;;;;4865051;29;20041;-78
2021/10/10 05:31:49;;;;;;;6.10;3.20;;;;;;;;;;4862463;29;21686;-77
2021/10/10 05:34:16;;;;;;;6.18;3.53;;;;;;;;;;4871243;29;20041;-78
2021/10/10 05:36:44;;;;;;;6.45;3.45;;;;;;;;;;4871988;29;20120;-78
2021/10/10 05:39:11;;;;;;;5.18;2.80;;;;;;;;;;4876898;29;20052;-78
2021/10/10 05:41:39;;;;;;;5.30;2.70;;;;;;;;;;4870254;29;20152;-78
2021/10/10 05:44:11;;;;;;;6.93;2.63;;;;;;;;;;4854542;29;20141;-78
2021/10/10 05:46:38;;;;;;;4.72;2.60;;;;;;;;;;4870697;29;20121;-78
2021/10/10 05:49:09;;;;;;;5.57;3.15;;;;;;;;;;4870731;29;20717;-77
2021/10/10 05:51:36;;;;;;;5.88;3.10;;;;;;;;;;4856690;29;20045;-78
2021/10/10 05:54:05;;;;;;;5.07;3.30;;;;;;;;;;4858876;29;20083;-78
2021/10/10 05:56:33;;;;;;;5.95;3.25;;;;;;;;;;4843252;29;20106;-78
2021/10/10 05:59:07;;;;;;;6.72;3.30;;;;;;;;;;4869775;29;20050;-78
2021/10/10 06:01:39;;;;;;;5.95;3.35;;;;;;;;;;4852697;29;20041;-74
2021/10/10 06:04:07;;;;;;;6.88;3.72;;;;;;;;;;4845803;29;20068;-74
2021/10/10 06:06:35;;;;;;;6.38;3.33;;;;;;;;;;4858799;29;20105;-74
2021/10/10 06:09:04;;;;;;;5.07;2.97;;;;;;;;;;4877902;29;20067;-74
2021/10/10 06:11:31;;;;;;;4.30;2.47;;;;;;;;;;4877441;29;20879;-74
2021/10/10 06:14:02;;;;;;;5.22;2.85;;;;;;;;;;4848274;29;20049;-74
2021/10/10 06:16:30;;;;;;;5.97;3.08;;;;;;;;;;4861672;29;20069;-74
2021/10/10 06:18:59;;;;;;;4.95;3.13;;;;;;;;;;4874079;29;20093;-74
2021/10/10 06:21:26;;;;;;;5.40;2.67;;;;;;;;;;4845789;29;21682;-74
2021/10/10 06:23:54;;;;;;;5.18;2.60;;;;;;;;;;4858593;29;20041;-75
2021/10/10 06:26:22;;;;;;;4.85;2.47;;;;;;;;;;4845616;29;20068;-74
2021/10/10 06:28:49;;;;;;;5.22;2.65;;;;;;;;;;4857187;29;20080;-75
2021/10/10 06:31:17;;;;;;;4.88;2.67;;;;;;;;;;4860237;29;20057;-74
2021/10/10 06:33:44;;;;;;;5.40;2.80;;;;;;;;;;4863216;29;20503;-75
2021/10/10 06:36:11;;;;;;;4.20;2.15;;;;;;;;;;4848001;29;20060;-75
2021/10/10 06:38:39;;;;;;;4.43;2.35;;;;;;;;;;4859667;29;20505;-75
2021/10/10 06:41:06;;;;;;;5.32;2.78;;;;;;;;;;4878713;29;20120;-78
2021/10/10 06:43:33;;;;;;;5.63;2.72;;;;;;;;;;4843926;29;20097;-75
2021/10/10 06:46:01;;;;;;;4.60;2.15;;;;;;;;;;4843111;29;20045;-76
2021/10/10 06:48:28;;;;;;;5.05;2.55;;;;;;;;;;4845596;29;20049;-75
2021/10/10 06:50:55;;;;;;;3.70;2.10;;;;;;;;;;4868548;29;20041;-76
2021/10/10 06:53:23;;;;;;;6.15;3.08;;;;;;;;;;4876856;29;20537;-74
2021/10/10 06:55:50;;;;;;;6.13;3.22;;;;;;;;;;4868550;29;20106;-74
2021/10/10 06:58:22;;;;;;;5.47;3.10;;;;;;;;;;4862727;29;20080;-76
2021/10/10 07:00:51;;;;;;;5.55;2.83;;;;;;;;;;4848540;29;20089;-75
2021/10/10 07:03:19;;;;;;;5.18;2.42;;;;;;;;;;4863697;29;20057;-76
2021/10/10 07:05:46;;;;;;;5.45;2.72;;;;;;;;;;4863866;29;20049;-75
2021/10/10 07:08:14;;;;;;;5.47;2.60;;;;;;;;;;4848884;29;20049;-75
2021/10/10 07:10:41;;;;;;;5.90;3.35;;;;;;;;;;4863428;29;20037;-75
2021/10/10 07:13:08;;;;;;;4.30;2.65;;;;;;;;;;4862840;29;20103;-75
2021/10/10 07:15:36;;;;;;;6.00;3.08;;;;;;;;;;4874765;29;20045;-75
2021/10/10 07:18:05;;;;;;;6.03;3.20;;;;;;;;;;4861751;29;20059;-76
2021/10/10 07:23:30;;;;;;;7.40;4.00;;;;;;;;;;4878040;29;20048;-75
2021/10/10 07:25:58;;;;;;;5.63;3.58;;;;;;;;;;4864008;29;20049;-75
2021/10/10 07:28:25;;;;;;;5.38;3.50;;;;;;;;;;4875371;29;20080;-76
2021/10/10 07:30:54;;;;;;;6.95;3.55;;;;;;;;;;4863373;29;20056;-76
2021/10/10 07:33:22;;;;;;;5.65;3.72;;;;;;;;;;4863943;29;20047;-76
2021/10/10 07:35:49;;;;;;;5.32;2.75;;;;;;;;;;4847182;29;20083;-75
2021/10/10 07:38:16;;;;;;;6.18;3.83;;;;;;;;;;4847353;29;20056;-75
2021/10/10 07:40:44;;;;;;;7.07;3.17;;;;;;;;;;4856127;29;20043;-76
2021/10/10 07:43:11;;;;;;;5.00;2.50;;;;;;;;;;4880307;29;20482;-76
2021/10/10 07:45:42;;;;;;;4.18;2.63;;;;;;;;;;4862001;29;20060;-75
2021/10/10 07:48:10;;;;;;;5.10;2.90;;;;;;;;;;4881123;29;20064;-76
2021/10/10 07:50:39;;;;;;;5.53;3.03;;;;;;;;;;4879489;29;20553;-75
2021/10/10 07:53:06;;;;;;;5.38;2.53;;;;;;;;;;4877523;29;20093;-75
2021/10/10 07:55:33;;;;;;;5.72;3.08;;;;;;;;;;4846893;29;20406;-75
2021/10/10 07:58:01;;;;;;;5.70;3.25;;;;;;;;;;4878790;29;20120;-74
2021/10/10 08:00:33;;;;;;;5.15;2.75;;;;;;;;;;4855805;29;20116;-74
2021/10/10 08:03:02;;;;;;;5.93;2.92;;;;;;;;;;4876354;29;20037;-75
2021/10/10 08:05:37;;;;;;;4.85;2.85;;;;;;;;;;4881661;29;20045;-75
2021/10/10 08:08:04;;;;;;;4.80;2.35;;;;;;;;;;4856864;29;20057;-75
2021/10/10 08:10:32;;;;;;;5.32;2.70;;;;;;;;;;4861977;29;20041;-76
2021/10/10 08:13:00;;;;;;;4.28;2.53;;;;;;;;;;4857067;29;20098;-75
2021/10/10 08:15:27;;;;;;;6.63;4.57;;;;;;;;;;4872972;29;20049;-75
2021/10/10 08:17:55;;;;;;;7.13;4.55;;;;;;;;;;4862644;29;20505;-75
2021/10/10 08:20:22;;;;;;;7.68;4.18;;;;;;;;;;4846590;29;20053;-76
2021/10/10 08:22:50;;;;;;;5.82;4.07;;;;;;;;;;4858470;29;20089;-75
2021/10/10 08:25:17;;;;;;;6.95;4.55;;;;;;;;;;4859215;29;20077;-76
2021/10/10 08:27:46;;;;;;;6.68;4.28;;;;;;;;;;4864873;29;20041;-75
2021/10/10 08:30:14;;;;;;;7.50;4.10;;;;;;;;;;4860055;29;20045;-75
2021/10/10 08:32:43;;;;;;;6.13;3.65;;;;;;;;;;4866022;29;20049;-76
2021/10/10 08:35:10;;;;;;;6.35;3.60;;;;;;;;;;4859474;29;20073;-75
2021/10/10 08:37:38;;;;;;;6.78;3.65;;;;;;;;;;4860391;29;20077;-75
2021/10/10 08:40:07;;;;;;;8.35;4.57;;;;;;;;;;4858801;29;20566;-75
2021/10/10 08:42:35;;;;;;;6.90;4.10;;;;;;;;;;4843466;29;20466;-75
2021/10/10 08:45:08;;;;;;;7.03;4.43;;;;;;;;;;4859433;29;20470;-75
2021/10/10 08:47:43;;;;;;;7.60;4.38;;;;;;;;;;4860080;29;20042;-76
2021/10/10 08:50:22;;;;;;;7.78;4.88;;;;;;;;;;4859179;29;20072;-76
2021/10/10 08:52:52;;;;;;;7.00;4.30;;;;;;;;;;4859812;29;20045;-75
2021/10/10 08:55:19;;;;;;;8.65;6.05;;;;;;;;;;4861318;29;20047;-76
2021/10/10 08:57:47;;;;;;;8.27;5.40;;;;;;;;;;4858428;29;20073;-75
2021/10/10 09:00:34;;;;;;;10.20;6.38;;;;;;;;;;4857741;29;20072;-76
2021/10/10 09:03:09;;;;;;;14.65;9.88;;;;;;;;;;4858223;29;20576;-76
2021/10/10 09:05:49;;;;;;;16.02;10.77;;;;;;;;;;4857495;29;20056;-76
2021/10/10 09:08:17;;;;;;;15.82;10.65;;;;;;;;;;4833761;29;20523;-74
2021/10/10 09:10:44;;;;;;;15.23;9.20;;;;;;;;;;4858252;29;20065;-75
2021/10/10 09:13:16;;;;;;;12.73;8.07;;;;;;;;;;4842820;29;20049;-76
2021/10/10 09:15:47;;;;;;;10.82;7.35;;;;;;;;;;4854349;29;20109;-86
2021/10/10 09:18:15;;;;;;;10.20;6.72;;;;;;;;;;4846437;29;20076;-83
2021/10/10 09:20:43;;;;;;;10.00;6.03;;;;;;;;;;4843988;29;20098;-83
2021/10/10 09:23:17;;;;;;;7.85;4.68;;;;;;;;;;4843638;29;20058;-86
2021/10/10 09:25:54;;;;;;;8.75;5.30;;;;;;;;;;4855776;29;20411;-85
2021/10/10 09:28:22;;;;;;;8.48;5.57;;;;;;;;;;4843307;29;20046;-75
2021/10/10 09:30:54;;;;;;;8.88;5.38;;;;;;;;;;4843017;29;20424;-75
2021/10/10 09:33:43;;;;;;;9.40;5.77;;;;;;;;;;4843551;29;20414;-76
2021/10/10 09:36:19;;;;;;;10.07;5.82;;;;;;;;;;4842100;29;20304;-75
2021/10/10 09:44:16;;;;;;;8.38;5.55;;;;;;;;;;4859184;29;20052;-79
2021/10/10 09:46:46;;;;;;;11.93;8.02;;;;;;;;;;4859462;29;20113;-77
2021/10/10 09:49:33;;;;;;;12.80;8.15;;;;;;;;;;4851333;29;20073;-74
2021/10/10 09:52:10;;;;;;;12.55;9.20;;;;;;;;;;4868925;29;20041;-74
2021/10/10 09:54:57;;;;;;;12.57;7.88;;;;;;;;;;4838300;29;20376;-75
2021/10/10 09:57:27;;;;;;;13.00;8.10;;;;;;;;;;4843735;29;20106;-75
2021/10/10 09:59:55;;;;;;;11.55;7.20;;;;;;;;;;4828812;29;20076;-76
2021/10/10 10:02:38;;;;;;;12.50;7.65;;;;;;;;;;4858397;29;20431;-75
2021/10/10 10:05:06;;;;;;;11.57;7.40;;;;;;;;;;4851029;29;20080;-76
2021/10/10 10:07:34;;;;;;;13.60;7.70;;;;;;;;;;4842366;29;20665;-76
2021/10/10 10:10:01;;;;;;;14.95;9.05;;;;;;;;;;4842964;29;20491;-76
2021/10/10 10:12:30;;;;;;;20.17;13.70;;;;;;;;;;4858827;29;20065;-75
2021/10/10 10:15:01;;;;;;;19.98;13.65;;;;;;;;;;4844805;29;20064;-75
2021/10/10 10:17:28;;;;;;;19.67;12.63;;;;;;;;;;4865740;29;20062;-76
2021/10/10 10:19:57;;;;;;;15.77;11.02;;;;;;;;;;4830361;29;20056;-75
2021/10/10 10:22:25;;;;;;;17.67;10.13;;;;;;;;;;4881397;29;20045;-75
2021/10/10 10:24:53;;;;;;;15.88;8.98;;;;;;;;;;4865210;29;20097;-75
2021/10/10 10:27:22;;;;;;;12.88;8.70;;;;;;;;;;4866993;29;20129;-77
2021/10/10 10:29:52;;;;;;;14.05;9.00;;;;;;;;;;4850043;29;20077;-75
2021/10/10 10:32:20;;;;;;;14.77;10.05;;;;;;;;;;4854380;29;20148;-75
2021/10/10 10:35:20;;;;;;;14.05;9.05;;;;;;;;;;4863007;29;20055;-74
2021/10/10 10:37:49;;;;;;;15.55;10.63;;;;;;;;;;4826009;29;20083;-74
2021/10/10 10:40:17;;;;;;;11.45;7.95;;;;;;;;;;4880040;29;20053;-75
2021/10/10 10:42:51;;;;;;;15.52;10.55;;;;;;;;;;4864012;29;20041;-75
2021/10/10 10:45:19;;;;;;;15.30;9.80;;;;;;;;;;4880472;29;20084;-74
2021/10/10 10:47:48;;;;;;;12.23;8.38;;;;;;;;;;4863638;29;20064;-74
2021/10/10 10:50:21;;;;;;;14.88;8.75;;;;;;;;;;4870032;29;20136;-74
2021/10/10 10:53:09;;;;;;;14.20;9.45;;;;;;;;;;4880136;29;20495;-75
2021/10/10 10:55:37;;;;;;;13.43;8.75;;;;;;;;;;4876368;29;20296;-75
2021/10/10 10:58:12;;;;;;;13.15;8.30;;;;;;;;;;4863271;29;20051;-74
2021/10/10 11:00:43;;;;;;;13.07;8.18;;;;;;;;;;4863135;29;20112;-75
2021/10/10 11:03:21;;;;;;;12.40;8.35;;;;;;;;;;4848368;29;20068;-75
2021/10/10 11:05:52;;;;;;;13.30;8.55;;;;;;;;;;4881178;29;20501;-75
2021/10/10 11:08:23;;;;;;;17.98;11.02;;;;;;;;;;4856300;29;20056;-76
2021/10/10 11:11:07;;;;;;;18.80;11.38;;;;;;;;;;4863476;29;20053;-77
2021/10/10 11:13:34;;;;;;;18.58;11.30;;;;;;;;;;4880698;29;20390;-77
2021/10/10 11:16:09;;;;;;;17.23;11.65;;;;;;;;;;4864773;29;20049;-75
2021/10/10 11:18:41;;;;;;;15.63;10.57;;;;;;;;;;4863644;29;20069;-75
2021/10/10 11:21:09;;;;;;;16.95;12.00;;;;;;;;;;4862993;29;20121;-76
2021/10/10 11:23:37;;;;;;;17.10;10.27;;;;;;;;;;4863661;29;20076;-74
2021/10/10 11:26:05;;;;;;;14.25;9.07;;;;;;;;;;4863760;29;20135;-77
2021/10/10 11:28:38;;;;;;;17.23;10.18;;;;;;;;;;4862607;29;20049;-75
2021/10/10 11:31:05;;;;;;;;;;;;;;;;;;4866910;29;20041;-75
2021/10/10 11:33:37;;;;;;;10.27;6.65;;;;;;;;;;4876446;29;19938;-77
2021/10/10 11:36:04;;;;;;;12.98;8.23;;;;;;;;;;4863329;29;20069;-76
2021/10/10 11:38:47;;;;;;;13.00;8.27;;;;;;;;;;4866340;29;20105;-75
2021/10/10 11:41:15;;;;;;;13.40;8.52;;;;;;;;;;4870303;29;20124;-79
2021/10/10 11:43:53;;;;;;;14.18;10.00;;;;;;;;;;4862197;29;20045;-75
2021/10/10 11:46:20;;;;;;;16.13;9.57;;;;;;;;;;4862627;29;20462;-74
2021/10/10 11:48:49;;;;;;;19.75;11.27;;;;;;;;;;4862640;29;20083;-75
2021/10/10 11:51:27;;;;;;;14.45;9.95;;;;;;;;;;4848666;29;20060;-75
2021/10/10 11:53:54;;;;;;;17.20;11.90;;;;;;;;;;4879077;29;20101;-74
2021/10/10 11:56:22;;;;;;;20.10;12.88;;;;;;;;;;4866261;29;20077;-73
2021/10/10 11:58:50;;;;;;;18.65;11.77;;;;;;;;;;4861586;29;20073;-73
2021/10/10 12:01:17;;;;;;;16.88;10.88;;;;;;;;;;4866023;29;20127;-74
2021/10/10 12:03:48;;;;;;;15.05;8.57;;;;;;;;;;4878432;29;20569;-75
2021/10/10 12:06:17;;;;;;;12.95;8.63;;;;;;;;;;4882434;29;20426;-74
2021/10/10 12:08:44;;;;;;;14.35;9.25;;;;;;;;;;4853511;29;20054;-74
2021/10/10 12:11:12;;;;;;;16.90;9.88;;;;;;;;;;4875130;29;20074;-74
2021/10/10 12:13:53;;;;;;;14.27;8.23;;;;;;;;;;4837995;29;20073;-74
2021/10/10 12:16:20;;;;;;;12.43;7.40;;;;;;;;;;4867397;29;20052;-74
2021/10/10 12:18:48;;;;;;;16.15;9.23;;;;;;;;;;4877676;29;20041;-74
2021/10/10 12:21:19;;;;;;;15.25;9.38;;;;;;;;;;4876462;29;20057;-73
2021/10/10 12:24:01;;;;;;;13.75;8.60;;;;;;;;;;4880463;29;20049;-74
2021/10/10 12:26:29;;;;;;;11.43;7.10;;;;;;;;;;4892622;29;20044;-73
2021/10/10 12:28:56;;;;;;;14.63;8.57;;;;;;;;;;4853133;29;20105;-74
2021/10/10 12:31:25;;;;;;;15.18;9.15;;;;;;;;;;4879103;29;20045;-73
2021/10/10 12:34:08;;;;;;;15.50;9.55;;;;;;;;;;4859587;29;20115;-74
2021/10/10 12:36:45;;;;;;;15.63;8.68;;;;;;;;;;4879732;29;20076;-74
2021/10/10 12:39:13;;;;;;;19.33;9.27;;;;;;;;;;4876690;29;20673;-74
2021/10/10 12:41:41;;;;;;;14.32;8.93;;;;;;;;;;4854875;29;20412;-73
2021/10/10 12:44:09;;;;;;;13.75;9.05;;;;;;;;;;4876162;29;20523;-74
2021/10/10 12:46:47;;;;;;;16.98;9.43;;;;;;;;;;4861262;29;20151;-74
2021/10/10 12:49:14;;;;;;;13.70;8.43;;;;;;;;;;4864627;29;20053;-74
2021/10/10 12:51:49;;;;;;;15.15;9.52;;;;;;;;;;4849283;29;20485;-74
2021/10/10 12:54:18;;;;;;;14.77;8.73;;;;;;;;;;4874489;29;20049;-73
2021/10/10 12:56:59;;;;;;;19.23;11.15;;;;;;;;;;4880399;29;20071;-74
2021/10/10 12:59:26;;;;;;;16.92;11.32;;;;;;;;;;4876824;29;20045;-74
2021/10/10 13:01:54;;;;;;;16.73;10.10;;;;;;;;;;4860881;29;20123;-74
2021/10/10 13:04:23;;;;;;;16.48;9.88;;;;;;;;;;4863029;29;20033;-74
2021/10/10 13:06:50;;;;;;;20.25;11.40;;;;;;;;;;4875286;29;20046;-74
2021/10/10 13:09:19;;;;;;;15.65;9.63;;;;;;;;;;4854697;29;20074;-74
2021/10/10 13:11:46;;;;;;;18.63;11.40;;;;;;;;;;4871885;29;20052;-75
2021/10/10 13:14:14;;;;;;;19.30;12.02;;;;;;;;;;4871299;29;20108;-75
2021/10/10 13:16:44;;;;;;;25.33;16.10;;;;;;;;;;4861577;29;20079;-76
2021/10/10 13:19:12;;;;;;;21.15;14.60;;;;;;;;;;4857339;29;20538;-76
2021/10/10 13:21:39;;;;;;;22.55;14.52;;;;;;;;;;4866756;29;20591;-74
2021/10/10 13:24:09;;;;;;;22.83;13.50;;;;;;;;;;4868978;29;20057;-75
2021/10/10 13:26:37;;;;;;;25.25;16.50;;;;;;;;;;4847142;29;20122;-74
2021/10/10 13:29:06;;;;;;;24.10;16.42;;;;;;;;;;4842777;29;20537;-75
2021/10/10 13:31:34;;;;;;;25.52;17.05;;;;;;;;;;4843907;29;20045;-75
2021/10/10 13:34:01;;;;;;;25.75;16.73;;;;;;;;;;4874799;29;20065;-75
2021/10/10 13:36:29;;;;;;;20.75;14.65;;;;;;;;;;4827349;29;20069;-75
2021/10/10 13:38:57;;;;;;;22.63;15.10;;;;;;;;;;4858331;29;20071;-74
2021/10/10 13:41:25;;;;;;;23.00;14.93;;;;;;;;;;4859045;29;20042;-76
2021/10/10 13:43:53;;;;;;;18.73;12.18;;;;;;;;;;4847919;29;20497;-75
2021/10/10 13:46:20;;;;;;;21.27;13.30;;;;;;;;;;4845006;29;20053;-75
2021/10/10 13:48:48;;;;;;;27.88;17.33;;;;;;;;;;4857524;29;20049;-75
2021/10/10 13:51:15;;;;;;;24.75;16.13;;;;;;;;;;4863179;29;20083;-75
2021/10/10 13:53:42;;;;;;;25.42;16.98;;;;;;;;;;4863522;29;20049;-74
2021/10/10 13:56:10;;;;;;;29.33;19.17;;;;;;;;;;4881053;29;20072;-74
2021/10/10 13:58:37;;;;;;;25.55;15.52;;;;;;;;;;4861973;29;20069;-74
2021/10/10 14:01:05;;;;;;;24.05;16.33;;;;;;;;;;4866491;29;20119;-75
2021/10/10 14:03:33;;;;;;;24.30;15.10;;;;;;;;;;4880986;29;20139;-75
2021/10/10 14:06:00;;;;;;;24.98;14.70;;;;;;;;;;4864379;29;20049;-75
2021/10/10 14:08:27;;;;;;;24.10;16.23;;;;;;;;;;4849148;29;20079;-75
2021/10/10 14:10:55;;;;;;;22.65;13.90;;;;;;;;;;4865373;29;20041;-74
2021/10/10 14:13:22;;;;;;;22.25;14.40;;;;;;;;;;4891019;29;20452;-75
2021/10/10 14:15:51;;;;;;;23.05;14.98;;;;;;;;;;4849832;29;20455;-74
2021/10/10 14:18:20;;;;;;;22.88;15.45;;;;;;;;;;4849032;29;20037;-75
2021/10/10 14:20:48;;;;;;;23.65;15.75;;;;;;;;;;4858453;29;20045;-74
2021/10/10 14:23:16;;;;;;;25.10;15.38;;;;;;;;;;4861102;29;20399;-75
2021/10/10 14:25:44;;;;;;;25.90;16.83;;;;;;;;;;4862912;29;20042;-74
2021/10/10 14:28:12;;;;;;;27.42;17.77;;;;;;;;;;4848087;29;20133;-75
2021/10/10 14:30:39;;;;;;;23.83;15.13;;;;;;;;;;4845998;29;20123;-74
2021/10/10 14:33:07;;;;;;;24.45;15.38;;;;;;;;;;4863352;29;20093;-74
2021/10/10 14:35:36;;;;;;;24.33;15.23;;;;;;;;;;4861540;29;20443;-74
2021/10/10 14:38:04;;;;;;;26.88;15.45;;;;;;;;;;4861088;29;20073;-75
2021/10/10 14:40:33;;;;;;;21.00;14.02;;;;;;;;;;4860520;29;20044;-74
2021/10/10 14:43:03;;;;;;;23.13;15.65;;;;;;;;;;4860325;29;20057;-74
2021/10/10 14:45:33;;;;;;;21.75;14.52;;;;;;;;;;4861141;29;20412;-73
2021/10/10 14:48:10;;;;;;;20.80;14.27;;;;;;;;;;4859929;29;20056;-73
2021/10/10 14:50:39;;;;;;;18.45;12.30;;;;;;;;;;4857568;29;20037;-74
2021/10/10 14:53:09;;;;;;;18.45;12.77;;;;;;;;;;4867587;29;20300;-74
2021/10/10 14:55:37;;;;;;;15.85;10.20;;;;;;;;;;4861396;29;20049;-74
2021/10/10 14:58:11;;;;;;;19.95;11.55;;;;;;;;;;4861380;29;20052;-74
2021/10/10 15:00:38;;;;;;;16.63;10.75;;;;;;;;;;4868635;29;20041;-75